This is the latest recevied weather packets stored in our database for station/object ED1ZAI-13. If no packets are shown the sender has not sent any weather packets the latest 10 day(s).
| Time | Temp. | Humidity | Pressure | Rain* | Wind** | Luminosity | Snow |
|---|---|---|---|---|---|---|---|
| 1777911372 | 11.67° C | 66% | 1010.3 hPa | 0 mm | - | - | - |
| 1777910772 | 13.33° C | 58% | 1009.6 hPa | 0 mm | - | - | - |
| 1777910172 | 13.89° C | 51% | 1009.5 hPa | 0 mm | - | - | - |
| 1777909572 | 16.11° C | 48% | 1009.4 hPa | 0 mm | - | - | - |
| 1777908971 | 17.22° C | 47% | 1009.4 hPa | 0 mm | - | - | - |
| 1777908373 | 15.56° C | 49% | 1009.5 hPa | 0 mm | - | - | - |
| 1777907773 | 17.22° C | 50% | 1009.5 hPa | 0 mm | - | - | - |
| 1777907172 | 15.56° C | 45% | 1009.5 hPa | 0 mm | - | - | - |
| 1777906572 | 15° C | 51% | 1009.6 hPa | 0 mm | - | - | - |
| 1777905972 | 15.56° C | 53% | 1009.8 hPa | 0 mm | - | - | - |
| 1777905372 | 13.89° C | 54% | 1009.8 hPa | 0 mm | - | - | - |
| 1777904771 | 16.67° C | 51% | 1009.9 hPa | 0 mm | - | - | - |
| 1777904173 | 14.44° C | 57% | 1010 hPa | 0 mm | - | - | - |
| 1777903430 | 15° C | 52% | 1010.1 hPa | 0 mm | - | - | - |
| 1777902829 | 14.44° C | 59% | 1010.3 hPa | 0 mm | - | - | - |
| 1777902229 | 12.78° C | 57% | 1010.5 hPa | 0 mm | - | - | - |
| 1777901629 | 11.67° C | 69% | 1010.8 hPa | 1.02 mm | - | - | - |
| 1777901028 | 8.89° C | 78% | 1011.2 hPa | 1.02 mm | - | - | - |
| 1777900430 | 8.89° C | 78% | 1011.8 hPa | 1.02 mm | - | - | - |
| 1777899830 | 11.67° C | 70% | 1011.6 hPa | 3.05 mm | - | - | - |
| 1777899229 | 12.22° C | 61% | 1011.3 hPa | 3.56 mm | - | - | - |
| 1777898628 | 15° C | 59% | 1011.3 hPa | 3.56 mm | - | - | - |
| 1777898030 | 11.67° C | 71% | 1011.6 hPa | 3.05 mm | - | - | - |
| 1777897430 | 11.11° C | 73% | 1011.6 hPa | 2.54 mm | - | - | - |
| 1777896828 | 11.11° C | 76% | 1011.6 hPa | 2.54 mm | - | - | - |
* Rain latest hour (hover to see other rain measurements)
** Current wind speed in m/s (hover to see current wind gust speed)